Аэропорт
Сыктывкар (UUYY)

 UUYY / SCW
ЗЦ Санкт-Петербург
Сыктывкар (UUYY)
Сыктывкар (UUYY)
 61.64700, 50.84510  / 342 ft

 UUYY 161630Z 24002MPS 9000 SCT014CB BKN036 M07/M08 Q1000 R36/490340 TEMPO 2100 -SHSN BR RMK QFE741/0988
 UUYY 160800Z 1609/1709 VRB01MPS 3100 -SHSN BKN011 BKN015CB TEMPO 1609/1624 2100 -SHSN BR BKN007 BKN012CB BECMG 1612/1614 30003G08MPS FM170000 22003G08MPS 3100 -SN BR BKN008 TEMPO 1700/1709 19005G10MPS 1000 SHSN BKN004 BKN012CB
показать схемы

Аэродром "Сыктывкар" (UUYY)

Рекомендованные сценарии:

FS2004 от Aniter

P3D/FSX от Aniter 

Схемы:

АИП

Средства связи ОВД:

UUYY_R_APP - Сивкар-Круг - 124.600

UUYY_TWR - Сивкар-Старт - 124.600

UUYY_ATIS - Сивкар-АТИС (русский, английский) - 126.600



2019 © VATRUS division (Privacy Policy)